createdAt,value
2018-09-12T00:00:32.876Z,15.93
2018-09-12T00:03:02.514Z,15.78
2018-09-12T00:22:53.658Z,14.97
2018-09-12T00:25:23.021Z,14.92
2018-09-12T00:27:52.879Z,14.86
2018-09-12T00:30:22.718Z,14.85
2018-09-12T00:32:52.237Z,14.89
2018-09-12T00:35:21.818Z,14.95
2018-09-12T00:37:51.714Z,15.02
2018-09-12T00:40:21.558Z,15.00
2018-09-12T01:00:15.148Z,14.85
2018-09-12T01:02:44.623Z,14.76
2018-09-12T01:05:14.003Z,14.75
2018-09-12T01:07:43.888Z,14.71
2018-09-12T01:10:13.569Z,14.73
2018-09-12T01:12:43.056Z,14.59
2018-09-12T01:15:12.971Z,14.63
2018-09-12T01:17:42.507Z,14.54
2018-09-12T01:20:12.274Z,14.38
2018-09-12T01:22:42.202Z,14.43
2018-09-12T01:25:11.648Z,14.56
2018-09-12T01:27:41.353Z,14.42
2018-09-12T01:30:15.249Z,14.33
2018-09-12T01:32:44.969Z,14.47
2018-09-12T01:35:14.455Z,14.40
2018-09-12T01:37:43.998Z,14.28
2018-09-12T01:40:13.603Z,14.25
2018-09-12T01:42:43.190Z,14.24
2018-09-12T01:45:13.157Z,14.13
2018-09-12T01:47:42.725Z,14.27
2018-09-12T02:07:36.829Z,14.13
2018-09-12T02:10:07.461Z,14.10
2018-09-12T02:29:58.699Z,13.65
2018-09-12T02:32:28.189Z,13.74
2018-09-12T02:34:58.005Z,13.61
2018-09-12T02:37:27.758Z,13.55
2018-09-12T02:39:57.331Z,13.55
2018-09-12T02:42:26.900Z,13.59
2018-09-12T02:44:56.619Z,13.66
2018-09-12T02:47:31.448Z,13.70
2018-09-12T02:50:00.912Z,13.72
2018-09-12T02:52:30.363Z,13.69
2018-09-12T03:12:22.324Z,13.42
2018-09-12T03:14:54.602Z,13.40
2018-09-12T03:17:24.795Z,13.39
2018-09-12T03:19:54.333Z,13.59
2018-09-12T03:22:23.763Z,13.47
2018-09-12T03:24:53.686Z,13.40
2018-09-12T03:27:23.154Z,13.46
2018-09-12T03:29:52.585Z,13.39
2018-09-12T03:32:21.995Z,13.33
2018-09-12T03:34:51.677Z,13.38
2018-09-12T03:37:21.555Z,13.40
2018-09-12T03:39:51.424Z,13.42
2018-09-12T03:42:21.496Z,13.38
2018-09-12T03:44:51.304Z,13.32
2018-09-12T03:47:21.171Z,13.19
2018-09-12T03:49:50.535Z,13.19
2018-09-12T03:52:20.348Z,13.25
2018-09-12T03:54:50.478Z,13.17
2018-09-12T03:57:20.102Z,13.07
2018-09-12T03:59:49.713Z,13.13
2018-09-12T04:02:19.503Z,13.11
2018-09-12T04:04:48.925Z,13.15
2018-09-12T04:07:18.640Z,13.11
2018-09-12T04:09:48.478Z,13.23
2018-09-12T04:12:18.047Z,13.18
2018-09-12T04:14:47.359Z,13.29
2018-09-12T04:34:39.442Z,13.06
2018-09-12T04:37:09.241Z,13.06
2018-09-12T04:57:01.869Z,13.27
2018-09-12T04:59:31.374Z,13.23
2018-09-12T05:19:23.186Z,13.45
2018-09-12T05:21:52.914Z,13.48
2018-09-12T05:41:44.533Z,13.92
2018-09-12T05:44:14.265Z,13.99
2018-09-12T05:46:43.896Z,14.10
2018-09-12T05:49:14.063Z,14.17
2018-09-12T05:51:43.691Z,14.33
2018-09-12T06:11:36.795Z,14.99
2018-09-12T06:14:06.593Z,15.06
2018-09-12T06:16:36.534Z,15.27
2018-09-12T06:19:06.045Z,15.37
2018-09-12T06:21:35.949Z,15.43
2018-09-12T06:24:05.607Z,15.54
2018-09-12T06:26:35.306Z,15.79
2018-09-12T06:46:27.357Z,16.03
2018-09-12T07:06:20.158Z,16.84
2018-09-12T07:08:49.935Z,16.86
2018-09-12T07:11:19.763Z,16.89
2018-09-12T07:13:49.983Z,17.01
2018-09-12T07:16:19.893Z,17.06
2018-09-12T07:18:49.788Z,17.09
2018-09-12T07:21:19.938Z,17.29
2018-09-12T07:41:12.711Z,17.88
2018-09-12T07:43:43.054Z,18.03
2018-09-12T07:46:13.049Z,18.18
2018-09-12T07:48:44.174Z,18.23
2018-09-12T07:51:14.354Z,18.40
2018-09-12T07:53:45.222Z,18.73
2018-09-12T07:56:15.036Z,18.96
2018-09-12T07:58:44.654Z,19.20
2018-09-12T08:18:36.929Z,19.71
2018-09-12T08:21:07.262Z,19.98
2018-09-12T08:23:37.281Z,19.93
2018-09-12T08:26:07.577Z,19.87
2018-09-12T08:28:37.727Z,20.06
2018-09-12T08:31:07.650Z,20.31
2018-09-12T08:50:59.942Z,20.85
2018-09-12T08:53:29.720Z,20.93
2018-09-12T08:55:59.851Z,21.18
2018-09-12T08:58:29.998Z,21.11
2018-09-12T09:00:59.651Z,21.07
2018-09-12T09:03:29.500Z,21.01
2018-09-12T09:05:59.635Z,21.02
2018-09-12T09:08:29.551Z,21.04
2018-09-12T09:10:59.460Z,21.17
2018-09-12T09:13:29.757Z,21.06
2018-09-12T09:33:21.524Z,22.53
2018-09-12T09:53:14.235Z,23.70
2018-09-12T09:55:44.108Z,23.88
2018-09-12T09:58:14.450Z,24.07
2018-09-12T10:00:49.586Z,24.04
2018-09-12T10:03:24.663Z,24.41
2018-09-12T10:05:59.685Z,24.15
2018-09-12T10:08:30.995Z,24.45
2018-09-12T10:11:01.347Z,24.39
2018-09-12T10:13:31.091Z,23.78
2018-09-12T10:16:00.990Z,24.23
2018-09-12T10:18:32.066Z,24.23
2018-09-12T10:38:23.930Z,25.84
2018-09-12T10:40:54.390Z,26.16
2018-09-12T10:43:24.658Z,26.43
2018-09-12T10:45:54.694Z,26.34
2018-09-12T10:48:24.685Z,26.41
2018-09-12T10:50:55.030Z,26.63
2018-09-12T10:53:25.130Z,26.60
2018-09-12T10:55:55.160Z,26.11
2018-09-12T11:15:48.996Z,24.83
2018-09-12T11:18:18.870Z,24.88
2018-09-12T11:20:48.777Z,24.83
2018-09-12T11:23:18.994Z,25.00
2018-09-12T11:25:49.450Z,24.98
2018-09-12T11:28:19.665Z,24.79
2018-09-12T11:48:12.308Z,26.76
2018-09-12T11:50:42.255Z,26.81
2018-09-12T11:53:12.271Z,27.09
2018-09-12T11:55:42.563Z,27.12
2018-09-12T11:58:12.520Z,27.39
2018-09-12T12:00:42.392Z,27.61
2018-09-12T12:03:12.535Z,27.82
2018-09-12T12:05:43.418Z,27.85
2018-09-12T12:08:13.299Z,27.94
2018-09-12T12:10:43.487Z,27.52
2018-09-12T12:13:13.848Z,27.84
2018-09-12T12:15:43.571Z,28.06
2018-09-12T12:18:13.861Z,27.40
2018-09-12T12:20:43.539Z,26.99
2018-09-12T12:23:13.418Z,26.32
2018-09-12T12:25:43.356Z,25.85
2018-09-12T12:28:13.717Z,25.56
2018-09-12T12:30:43.523Z,25.16
2018-09-12T12:33:13.702Z,24.76
2018-09-12T12:53:05.610Z,24.88
2018-09-12T12:55:35.824Z,24.56
2018-09-12T12:58:06.022Z,24.44
2018-09-12T13:00:36.511Z,24.91
2018-09-12T13:03:06.750Z,25.55
2018-09-12T13:05:36.537Z,26.25
2018-09-12T13:08:06.521Z,26.72
2018-09-12T13:27:58.728Z,25.68
2018-09-12T13:30:28.484Z,25.36
2018-09-12T13:32:58.441Z,25.21
2018-09-12T13:35:28.729Z,24.75
2018-09-12T13:37:59.444Z,24.46
2018-09-12T13:40:29.219Z,24.49
2018-09-12T13:42:59.518Z,24.47
2018-09-12T13:45:29.881Z,24.47
2018-09-12T14:05:22.007Z,24.39
2018-09-12T14:07:51.736Z,25.20
2018-09-12T14:10:22.319Z,25.75
2018-09-12T14:12:52.091Z,26.29
2018-09-12T14:32:44.309Z,27.70
2018-09-12T14:35:14.485Z,28.25
2018-09-12T14:37:45.191Z,28.05
2018-09-12T14:40:15.290Z,27.71
2018-09-12T14:42:45.003Z,27.53
2018-09-12T14:45:14.706Z,27.66
2018-09-12T14:47:47.599Z,27.32
2018-09-12T14:50:17.209Z,26.92
2018-09-12T15:10:08.338Z,24.66
2018-09-12T15:12:38.283Z,24.25
2018-09-12T15:15:07.828Z,24.04
2018-09-12T15:17:37.584Z,23.99
2018-09-12T15:40:31.203Z,24.54
2018-09-12T15:43:01.131Z,24.12
2018-09-12T15:45:30.580Z,23.97
2018-09-12T15:48:00.666Z,23.65
2018-09-12T15:50:30.270Z,23.72
2018-09-12T15:52:59.773Z,23.91
2018-09-12T15:55:29.362Z,24.18
2018-09-12T15:57:58.929Z,23.67
2018-09-12T16:00:28.456Z,23.67
2018-09-12T16:02:59.454Z,23.80
2018-09-12T16:05:28.883Z,23.86
2018-09-12T16:07:58.556Z,24.07
2018-09-12T16:10:28.253Z,23.98
2018-09-12T16:12:57.800Z,23.86
2018-09-12T16:15:27.389Z,23.70
2018-09-12T16:35:19.849Z,23.05
2018-09-12T16:37:49.401Z,22.83
2018-09-12T16:40:18.941Z,22.79
2018-09-12T16:42:49.087Z,22.76
2018-09-12T16:45:18.989Z,22.70
2018-09-12T16:47:48.520Z,22.67
2018-09-12T16:50:18.403Z,22.48
2018-09-12T17:10:09.906Z,22.32
2018-09-12T17:12:39.682Z,22.23
2018-09-12T17:15:09.289Z,22.22
2018-09-12T17:17:38.819Z,22.25
2018-09-12T17:20:08.786Z,22.25
2018-09-12T17:22:38.427Z,22.28
2018-09-12T17:25:09.274Z,22.09
2018-09-12T17:45:00.679Z,21.87
2018-09-12T17:47:30.309Z,21.70
2018-09-12T17:50:00.500Z,21.71
2018-09-12T18:09:51.854Z,21.45
2018-09-12T18:12:21.783Z,21.42
2018-09-12T18:14:51.376Z,21.46
2018-09-12T18:17:21.240Z,21.27
2018-09-12T18:19:51.174Z,21.19
2018-09-12T18:22:20.791Z,21.41
2018-09-12T18:24:50.784Z,21.33
2018-09-12T18:27:20.186Z,21.36
2018-09-12T18:29:49.871Z,21.33
2018-09-12T18:32:19.564Z,21.37
2018-09-12T18:34:49.245Z,21.17
2018-09-12T18:37:18.962Z,20.97
2018-09-12T18:39:49.021Z,21.10
2018-09-12T18:42:19.119Z,21.15
2018-09-12T18:44:50.082Z,21.10
2018-09-12T18:47:20.876Z,21.09
2018-09-12T18:49:51.596Z,21.09
2018-09-12T18:52:21.533Z,21.04
2018-09-12T18:54:51.195Z,21.06
2018-09-12T19:14:42.712Z,20.92
2018-09-12T19:17:12.287Z,20.62
2018-09-12T19:19:42.383Z,20.68
2018-09-12T19:22:17.271Z,20.78
2018-09-12T19:24:47.710Z,20.63
2018-09-12T19:27:17.783Z,20.60
2018-09-12T19:29:48.515Z,20.53
2018-09-12T19:32:18.214Z,20.47
2018-09-12T19:52:09.773Z,20.36
2018-09-12T19:54:39.319Z,20.23
2018-09-12T19:57:08.973Z,20.33
2018-09-12T19:59:38.846Z,20.25
2018-09-12T20:02:08.541Z,20.27
2018-09-12T20:04:40.143Z,20.24
2018-09-12T20:07:09.699Z,20.18
2018-09-12T20:09:39.367Z,20.07
2018-09-12T20:12:09.031Z,20.20
2018-09-12T20:31:59.989Z,19.82
2018-09-12T20:34:30.700Z,19.65
2018-09-12T20:37:00.378Z,19.83
2018-09-12T20:39:29.861Z,19.66
2018-09-12T20:41:59.832Z,19.57
2018-09-12T20:44:30.573Z,19.49
2018-09-12T20:47:00.484Z,19.45
2018-09-12T20:49:30.541Z,19.44
2018-09-12T20:52:00.353Z,19.37
2018-09-12T20:54:30.863Z,19.20
2018-09-12T20:57:00.983Z,19.11
2018-09-12T20:59:30.558Z,19.19
2018-09-12T21:02:00.680Z,19.02
2018-09-12T21:04:30.347Z,19.04
2018-09-12T21:07:00.149Z,18.91
2018-09-12T21:09:29.954Z,18.82
2018-09-12T21:11:59.806Z,18.67
2018-09-12T21:14:29.442Z,18.97
2018-09-12T21:16:59.708Z,18.93
2018-09-12T21:19:29.477Z,18.82
2018-09-12T21:21:59.345Z,18.61
2018-09-12T21:24:29.072Z,18.45
2018-09-12T21:27:00.091Z,18.40
2018-09-12T21:29:30.256Z,18.45
2018-09-12T21:32:00.274Z,18.44
2018-09-12T21:34:29.901Z,18.35
2018-09-12T21:36:59.997Z,18.46
2018-09-12T21:39:29.777Z,18.19
2018-09-12T21:41:59.951Z,18.31
2018-09-12T21:44:29.719Z,18.23
2018-09-12T21:46:59.678Z,18.10
2018-09-12T21:49:29.141Z,18.31
2018-09-12T21:51:59.349Z,18.15
2018-09-12T21:54:29.103Z,17.97
2018-09-12T21:56:59.025Z,17.84
2018-09-12T21:59:29.122Z,17.45
2018-09-12T22:01:58.905Z,17.36
2018-09-12T22:04:28.654Z,17.41
2018-09-12T22:06:59.476Z,17.53
2018-09-12T22:09:29.140Z,17.54
2018-09-12T22:11:59.117Z,17.58
2018-09-12T22:14:28.769Z,17.69
2018-09-12T22:16:58.548Z,17.63
2018-09-12T22:19:28.133Z,17.79
2018-09-12T22:21:57.855Z,17.73
2018-09-12T22:24:27.417Z,17.77
2018-09-12T22:26:57.387Z,17.92
2018-09-12T22:29:27.700Z,17.83
2018-09-12T22:31:57.518Z,17.81
2018-09-12T22:34:27.238Z,17.63
2018-09-12T22:36:56.874Z,17.66
2018-09-12T22:39:26.741Z,17.70
2018-09-12T22:41:56.454Z,17.76
2018-09-12T22:44:26.320Z,17.77
2018-09-12T22:46:56.177Z,17.62
2018-09-12T22:49:26.215Z,17.60
2018-09-12T22:51:56.146Z,17.59
2018-09-12T22:54:25.820Z,17.62
2018-09-12T22:56:55.759Z,17.60
2018-09-12T22:59:25.667Z,17.69
2018-09-12T23:01:55.249Z,17.62
2018-09-12T23:04:24.797Z,17.45
2018-09-12T23:06:54.416Z,17.58
2018-09-12T23:09:24.182Z,17.57
2018-09-12T23:11:53.831Z,17.55
2018-09-12T23:14:23.892Z,17.50
2018-09-12T23:16:53.549Z,17.54
2018-09-12T23:19:23.148Z,17.38
2018-09-12T23:21:53.066Z,17.44
2018-09-12T23:24:22.545Z,17.32
2018-09-12T23:26:52.295Z,17.18
2018-09-12T23:29:22.312Z,17.15
2018-09-12T23:31:52.126Z,17.09
2018-09-12T23:34:21.731Z,17.00
2018-09-12T23:36:51.862Z,17.16
2018-09-12T23:39:21.605Z,17.20
2018-09-12T23:41:51.215Z,17.26
2018-09-12T23:44:21.115Z,17.18
2018-09-12T23:46:50.483Z,17.08
2018-09-12T23:49:20.439Z,16.93
2018-09-12T23:51:50.770Z,16.85
2018-09-12T23:54:20.343Z,16.88
2018-09-12T23:56:50.053Z,16.79
2018-09-12T23:59:19.861Z,16.74
